Relevés horaires Beauvechain (Belgique)


Relevés horaires à Beauvechain - Mardi 25 Sept. 2018
Heure UTC1 Température [°C] Vent [km/h] Hum. [%] Pres.4 [hPa] Visi. [Km] Nébu. [octa] Préc.5 [mm] Cond.
2m. Res. Ros. Dir.2 Vit. Moy. Raf.3
20:00 10.9 10.9 4.4 NNO 1.9 -- 3.7 64 1037.5(0.2/3h) 20 1/8 -- --
19:00 11.1 11.1 5.0 NNO 1.9 -- 1.9 66 1037.9(0.7/3h) 20 2/8 -- --
18:00 12.0 12.0 5.5 NNO 1.9 -- 13.0 64 1037.2(-0.7/3h) 20 2/8 -- --
17:00 13.3 13.3 5.7 ENE 3.7 -- 7.4 60 1037(-1.1/3h) 20 3/8 -- --
16:00 14.1 14.1 4.3 E 3.7 -- 13.0 52 1037(-2.1/3h) 20 2/8 -- --
15:00 14.3 14.3 4.0 E 5.6 -- 11.1 50 1037.9(-1.6/3h) 20 -- -- --
14:00 14.3 14.3 5.2 ESE 3.7 -- 9.3 54 1038.2(-1.5/3h) 20 2/8 -- --
13:00 13.8 13.8 4.2 ENE 5.6 -- 11.1 52 1039.2(-0.8/3h) 20 2/8 -- --
12:00 13.4 13.4 5.6 NE 3.7 -- 9.3 59 1039.5(-0.4/3h) 20 3/8 -- --
11:00 13.2 13.2 5.6 NE 3.7 -- 7.4 60 1039.7(0.1/3h) 20 3/8 -- --
10:00 12.6 12.6 6.3 NE 3.7 -- 5.6 65 1040(1.2/3h) 20 3/8 -- --
09:00 11.8 11.8 7.0 NNO 1.9 -- 3.7 72 1040(1.3/3h) 20 1/8 -- --
08:00 9.6 9.6 6.5 NNO 1.9 -- 1.9 81 1039.7(1.0/3h) 20 1/8 -- --
07:00 7.0 7.0 5.0 NNO 1.9 -- 3.7 87 1039.2(0.5/3h) 20 1/8 -- --
06:00 6.1 6.1 4.2 NNO 1.9 -- 3.7 88 1039(0.4/3h) 20 1/8 -- --
05:00 5.4 5.4 3.9 NNO 1.9 -- 1.9 90 1039(0.1/3h) 20 1/8 -- --
04:00 6.5 6.5 4.3 NNO 1.9 -- 1.9 86 1038.6(0.0/3h) 20 1/8 -- --
03:00 6.7 6.7 4.2 NNO 1.9 -- 3.7 84 1038.5(-0.4/3h) 20 -- -- --
02:00 6.9 6.9 4.2 NNO 1.9 -- 3.7 83 1038.7(-0.2/3h) 20 -- -- --
01:00 6.8 6.8 4.3 SO 3.7 -- 3.7 84 1039(0.1/3h) 20 -- -- --
00:00 7.0 7.0 4.4 SO 3.7 -- 5.6 83 1039(0.4/3h) 20 -- -- --

1 Coordinated Universal Time. Actuellement il est 23:00 locale et 21:00 UTC.

2 Le vent souffle depuis la direction indiquée vers la direction oposée.

3 Les rafales max. sont disponible 40 min après l'heure du relevé.

4 Pour les stations d'altitude (plus de 600m) le géopotentiel du niveau le plus proche de la pression obligatoire est indiqué.

5 Les stations disposant d'un diffuseur peuvent indiquer "trace". Cela signifie que des précipitations ont touchés le sol mais que la quantité est inférieure à 0.1 mm.

Récapitulatif de la journée
Température [°C] Vent [km/h] Ensoleillement4 [h] Precipitations totale5 [mm] Pression [Hpa]
Min1 Max.2 Moy.3 Max. Min Max.
5.0 14.6 0 13.0 0 h 0 min 0 1037.0 1040.0

1 Température minimale relevée entre 18:00 UTC la veille et 18:00 UTC le jour donné.

2 Température maximale relevée entre 06:00 UTC le jour donné et 06:00 UTC le lendemain.

3 Vent moyen de la journée basé sur les relevés horaires.

4 Ensoleillement en heures relevé entre 06:00 UTC la veille et 06:00 UTC le jour donné.

5 Précipitations totales tombées entre 06:00 UTC la jour donné et 06:00 UTC le lendemain.

Graphiques horaires